sensor_id;sensor_type;location;lat;lon;timestamp;P1;durP1;ratioP1;P2;durP2;ratioP2
52962;SDS011;38827;53.024;6.596;2023-06-10T00:00:31;11.90;;;4.63;;
52962;SDS011;38827;53.024;6.596;2023-06-10T00:03:02;8.82;;;4.65;;
52962;SDS011;38827;53.024;6.596;2023-06-10T00:05:28;13.40;;;4.82;;
52962;SDS011;38827;53.024;6.596;2023-06-10T00:07:57;10.02;;;5.00;;
52962;SDS011;38827;53.024;6.596;2023-06-10T00:10:34;8.43;;;5.00;;
52962;SDS011;38827;53.024;6.596;2023-06-10T00:13:04;8.77;;;4.45;;
52962;SDS011;38827;53.024;6.596;2023-06-10T00:15:33;9.38;;;4.70;;
52962;SDS011;38827;53.024;6.596;2023-06-10T00:18:00;10.38;;;5.55;;
52962;SDS011;38827;53.024;6.596;2023-06-10T00:20:39;8.85;;;4.85;;
52962;SDS011;38827;53.024;6.596;2023-06-10T00:23:19;8.43;;;4.28;;
52962;SDS011;38827;53.024;6.596;2023-06-10T00:25:55;7.00;;;4.10;;
52962;SDS011;38827;53.024;6.596;2023-06-10T00:28:36;7.63;;;4.38;;
52962;SDS011;38827;53.024;6.596;2023-06-10T00:31:14;8.90;;;4.60;;
52962;SDS011;38827;53.024;6.596;2023-06-10T00:33:46;11.02;;;4.70;;
52962;SDS011;38827;53.024;6.596;2023-06-10T00:36:12;12.43;;;4.68;;
52962;SDS011;38827;53.024;6.596;2023-06-10T00:38:44;9.50;;;4.53;;
52962;SDS011;38827;53.024;6.596;2023-06-10T00:41:16;7.55;;;4.80;;
52962;SDS011;38827;53.024;6.596;2023-06-10T00:43:41;9.23;;;4.47;;
52962;SDS011;38827;53.024;6.596;2023-06-10T00:46:07;9.57;;;4.85;;
52962;SDS011;38827;53.024;6.596;2023-06-10T00:48:33;8.27;;;4.82;;
52962;SDS011;38827;53.024;6.596;2023-06-10T00:50:59;8.30;;;4.80;;
52962;SDS011;38827;53.024;6.596;2023-06-10T00:53:25;10.35;;;4.63;;
52962;SDS011;38827;53.024;6.596;2023-06-10T00:55:52;7.93;;;4.60;;
52962;SDS011;38827;53.024;6.596;2023-06-10T00:58:18;8.88;;;4.78;;
52962;SDS011;38827;53.024;6.596;2023-06-10T01:00:59;8.20;;;4.32;;
52962;SDS011;38827;53.024;6.596;2023-06-10T01:03:25;8.43;;;4.80;;
52962;SDS011;38827;53.024;6.596;2023-06-10T01:05:53;8.35;;;4.72;;
52962;SDS011;38827;53.024;6.596;2023-06-10T01:08:35;11.45;;;5.15;;
52962;SDS011;38827;53.024;6.596;2023-06-10T01:11:03;11.98;;;5.88;;
52962;SDS011;38827;53.024;6.596;2023-06-10T01:13:35;7.82;;;5.00;;
52962;SDS011;38827;53.024;6.596;2023-06-10T01:16:04;9.73;;;4.82;;
52962;SDS011;38827;53.024;6.596;2023-06-10T01:18:32;8.73;;;4.68;;
52962;SDS011;38827;53.024;6.596;2023-06-10T01:20:58;9.50;;;4.72;;
52962;SDS011;38827;53.024;6.596;2023-06-10T01:23:24;11.10;;;5.07;;
52962;SDS011;38827;53.024;6.596;2023-06-10T01:25:53;10.48;;;5.53;;
52962;SDS011;38827;53.024;6.596;2023-06-10T01:28:31;10.47;;;4.73;;
52962;SDS011;38827;53.024;6.596;2023-06-10T01:31:18;13.80;;;4.60;;
52962;SDS011;38827;53.024;6.596;2023-06-10T01:33:52;9.45;;;4.30;;
52962;SDS011;38827;53.024;6.596;2023-06-10T01:36:19;7.22;;;4.50;;
52962;SDS011;38827;53.024;6.596;2023-06-10T01:38:47;10.88;;;4.43;;
52962;SDS011;38827;53.024;6.596;2023-06-10T01:41:18;8.40;;;4.45;;
52962;SDS011;38827;53.024;6.596;2023-06-10T01:43:46;7.63;;;4.57;;
52962;SDS011;38827;53.024;6.596;2023-06-10T01:46:25;10.80;;;4.70;;
52962;SDS011;38827;53.024;6.596;2023-06-10T01:49:00;9.27;;;4.95;;
52962;SDS011;38827;53.024;6.596;2023-06-10T01:51:26;8.02;;;4.80;;
52962;SDS011;38827;53.024;6.596;2023-06-10T01:53:54;7.70;;;4.78;;
52962;SDS011;38827;53.024;6.596;2023-06-10T01:56:32;11.35;;;5.05;;
52962;SDS011;38827;53.024;6.596;2023-06-10T01:58:59;7.32;;;4.78;;
52962;SDS011;38827;53.024;6.596;2023-06-10T02:01:40;8.38;;;4.57;;
52962;SDS011;38827;53.024;6.596;2023-06-10T02:04:18;7.90;;;4.60;;
52962;SDS011;38827;53.024;6.596;2023-06-10T02:06:44;9.07;;;4.85;;
52962;SDS011;38827;53.024;6.596;2023-06-10T02:09:16;7.82;;;4.25;;
52962;SDS011;38827;53.024;6.596;2023-06-10T02:11:46;9.43;;;5.15;;
52962;SDS011;38827;53.024;6.596;2023-06-10T02:14:12;8.27;;;5.07;;
52962;SDS011;38827;53.024;6.596;2023-06-10T02:16:39;8.00;;;4.53;;
52962;SDS011;38827;53.024;6.596;2023-06-10T02:19:04;10.25;;;4.30;;
52962;SDS011;38827;53.024;6.596;2023-06-10T02:23:57;9.57;;;4.90;;
52962;SDS011;38827;53.024;6.596;2023-06-10T02:26:23;8.00;;;4.50;;
52962;SDS011;38827;53.024;6.596;2023-06-10T02:28:51;8.27;;;4.80;;
52962;SDS011;38827;53.024;6.596;2023-06-10T02:31:17;7.90;;;4.88;;
52962;SDS011;38827;53.024;6.596;2023-06-10T02:33:43;10.30;;;5.13;;
52962;SDS011;38827;53.024;6.596;2023-06-10T02:36:09;7.07;;;4.88;;
52962;SDS011;38827;53.024;6.596;2023-06-10T02:38:40;10.55;;;5.07;;
52962;SDS011;38827;53.024;6.596;2023-06-10T02:41:07;12.38;;;5.38;;
52962;SDS011;38827;53.024;6.596;2023-06-10T02:43:33;7.90;;;4.50;;
52962;SDS011;38827;53.024;6.596;2023-06-10T02:45:59;9.05;;;4.75;;
52962;SDS011;38827;53.024;6.596;2023-06-10T02:48:25;9.25;;;4.88;;
52962;SDS011;38827;53.024;6.596;2023-06-10T02:50:51;10.32;;;5.53;;
52962;SDS011;38827;53.024;6.596;2023-06-10T02:53:17;9.93;;;4.93;;
52962;SDS011;38827;53.024;6.596;2023-06-10T02:55:42;9.85;;;5.18;;
52962;SDS011;38827;53.024;6.596;2023-06-10T02:58:09;10.53;;;5.00;;
52962;SDS011;38827;53.024;6.596;2023-06-10T03:00:34;8.25;;;4.30;;
52962;SDS011;38827;53.024;6.596;2023-06-10T03:05:31;7.93;;;4.32;;
52962;SDS011;38827;53.024;6.596;2023-06-10T03:07:57;8.93;;;4.53;;
52962;SDS011;38827;53.024;6.596;2023-06-10T03:10:23;9.20;;;4.82;;
52962;SDS011;38827;53.024;6.596;2023-06-10T03:12:49;7.55;;;5.18;;
52962;SDS011;38827;53.024;6.596;2023-06-10T03:15:14;8.73;;;4.82;;
52962;SDS011;38827;53.024;6.596;2023-06-10T03:17:41;10.30;;;5.43;;
52962;SDS011;38827;53.024;6.596;2023-06-10T03:20:06;9.30;;;4.80;;
52962;SDS011;38827;53.024;6.596;2023-06-10T03:22:37;9.15;;;4.97;;
52962;SDS011;38827;53.024;6.596;2023-06-10T03:25:06;9.80;;;5.40;;
52962;SDS011;38827;53.024;6.596;2023-06-10T03:27:39;10.68;;;5.32;;
52962;SDS011;38827;53.024;6.596;2023-06-10T03:30:05;8.27;;;5.05;;
52962;SDS011;38827;53.024;6.596;2023-06-10T03:32:32;10.18;;;4.93;;
52962;SDS011;38827;53.024;6.596;2023-06-10T03:34:57;13.32;;;5.40;;
52962;SDS011;38827;53.024;6.596;2023-06-10T03:37:24;10.73;;;5.60;;
52962;SDS011;38827;53.024;6.596;2023-06-10T03:39:53;10.07;;;5.03;;
52962;SDS011;38827;53.024;6.596;2023-06-10T03:42:19;11.75;;;5.60;;
52962;SDS011;38827;53.024;6.596;2023-06-10T03:44:44;7.30;;;4.60;;
52962;SDS011;38827;53.024;6.596;2023-06-10T03:47:10;9.73;;;5.35;;
52962;SDS011;38827;53.024;6.596;2023-06-10T03:49:37;12.52;;;5.85;;
52962;SDS011;38827;53.024;6.596;2023-06-10T03:52:05;12.80;;;5.40;;
52962;SDS011;38827;53.024;6.596;2023-06-10T03:54:31;11.80;;;4.90;;
52962;SDS011;38827;53.024;6.596;2023-06-10T03:56:59;9.77;;;5.28;;
52962;SDS011;38827;53.024;6.596;2023-06-10T03:59:25;11.80;;;5.78;;
52962;SDS011;38827;53.024;6.596;2023-06-10T04:01:51;11.85;;;5.53;;
52962;SDS011;38827;53.024;6.596;2023-06-10T04:04:16;12.07;;;5.10;;
52962;SDS011;38827;53.024;6.596;2023-06-10T04:06:45;12.63;;;5.38;;
52962;SDS011;38827;53.024;6.596;2023-06-10T04:09:11;10.50;;;4.88;;
52962;SDS011;38827;53.024;6.596;2023-06-10T04:11:37;11.73;;;5.22;;
52962;SDS011;38827;53.024;6.596;2023-06-10T04:14:33;13.68;;;6.13;;
52962;SDS011;38827;53.024;6.596;2023-06-10T04:17:08;11.85;;;5.65;;
52962;SDS011;38827;53.024;6.596;2023-06-10T04:19:40;11.00;;;5.45;;
52962;SDS011;38827;53.024;6.596;2023-06-10T04:22:14;7.82;;;5.15;;
52962;SDS011;38827;53.024;6.596;2023-06-10T04:24:43;10.00;;;5.60;;
52962;SDS011;38827;53.024;6.596;2023-06-10T04:27:15;13.48;;;6.05;;
52962;SDS011;38827;53.024;6.596;2023-06-10T04:29:41;12.80;;;6.10;;
52962;SDS011;38827;53.024;6.596;2023-06-10T04:32:09;10.35;;;5.15;;
52962;SDS011;38827;53.024;6.596;2023-06-10T04:34:38;11.05;;;5.68;;
52962;SDS011;38827;53.024;6.596;2023-06-10T04:37:04;9.90;;;5.78;;
52962;SDS011;38827;53.024;6.596;2023-06-10T04:39:30;10.55;;;5.63;;
52962;SDS011;38827;53.024;6.596;2023-06-10T04:42:02;11.63;;;5.80;;
52962;SDS011;38827;53.024;6.596;2023-06-10T04:44:39;9.13;;;5.93;;
52962;SDS011;38827;53.024;6.596;2023-06-10T04:47:05;13.90;;;5.43;;
52962;SDS011;38827;53.024;6.596;2023-06-10T04:49:52;13.32;;;5.97;;
52962;SDS011;38827;53.024;6.596;2023-06-10T04:52:18;9.73;;;5.63;;
52962;SDS011;38827;53.024;6.596;2023-06-10T04:55:02;10.07;;;5.50;;
52962;SDS011;38827;53.024;6.596;2023-06-10T04:57:34;10.85;;;5.97;;
52962;SDS011;38827;53.024;6.596;2023-06-10T04:59:59;14.00;;;5.50;;
52962;SDS011;38827;53.024;6.596;2023-06-10T05:02:28;14.52;;;6.28;;
52962;SDS011;38827;53.024;6.596;2023-06-10T05:08:43;14.38;;;5.45;;
52962;SDS011;38827;53.024;6.596;2023-06-10T05:11:09;12.02;;;5.53;;
52962;SDS011;38827;53.024;6.596;2023-06-10T05:13:38;10.82;;;5.30;;
52962;SDS011;38827;53.024;6.596;2023-06-10T05:16:05;10.98;;;6.18;;
52962;SDS011;38827;53.024;6.596;2023-06-10T05:18:43;13.23;;;6.37;;
52962;SDS011;38827;53.024;6.596;2023-06-10T05:21:10;12.73;;;5.85;;
52962;SDS011;38827;53.024;6.596;2023-06-10T05:23:58;12.75;;;5.60;;
52962;SDS011;38827;53.024;6.596;2023-06-10T05:26:24;10.32;;;6.10;;
52962;SDS011;38827;53.024;6.596;2023-06-10T05:29:03;12.60;;;5.85;;
52962;SDS011;38827;53.024;6.596;2023-06-10T05:31:47;14.30;;;5.95;;
52962;SDS011;38827;53.024;6.596;2023-06-10T05:34:13;10.48;;;5.20;;
52962;SDS011;38827;53.024;6.596;2023-06-10T05:36:39;12.40;;;6.13;;
52962;SDS011;38827;53.024;6.596;2023-06-10T05:39:06;9.27;;;5.32;;
52962;SDS011;38827;53.024;6.596;2023-06-10T05:42:05;14.38;;;6.47;;
52962;SDS011;38827;53.024;6.596;2023-06-10T05:44:34;14.25;;;5.82;;
52962;SDS011;38827;53.024;6.596;2023-06-10T05:47:03;13.18;;;5.65;;
52962;SDS011;38827;53.024;6.596;2023-06-10T05:49:30;12.30;;;5.32;;
52962;SDS011;38827;53.024;6.596;2023-06-10T05:52:26;13.18;;;5.68;;
52962;SDS011;38827;53.024;6.596;2023-06-10T05:55:00;11.77;;;5.05;;
52962;SDS011;38827;53.024;6.596;2023-06-10T05:57:42;10.88;;;5.80;;
52962;SDS011;38827;53.024;6.596;2023-06-10T06:00:08;9.98;;;5.20;;
52962;SDS011;38827;53.024;6.596;2023-06-10T06:02:34;9.50;;;4.88;;
52962;SDS011;38827;53.024;6.596;2023-06-10T06:05:17;10.23;;;5.32;;
52962;SDS011;38827;53.024;6.596;2023-06-10T06:07:55;10.57;;;5.70;;
52962;SDS011;38827;53.024;6.596;2023-06-10T06:10:21;10.23;;;5.55;;
52962;SDS011;38827;53.024;6.596;2023-06-10T06:15:46;8.13;;;5.07;;
52962;SDS011;38827;53.024;6.596;2023-06-10T06:18:27;12.13;;;5.13;;
52962;SDS011;38827;53.024;6.596;2023-06-10T06:20:56;10.10;;;5.45;;
52962;SDS011;38827;53.024;6.596;2023-06-10T06:23:33;11.55;;;5.50;;
52962;SDS011;38827;53.024;6.596;2023-06-10T06:26:14;10.23;;;5.50;;
52962;SDS011;38827;53.024;6.596;2023-06-10T06:28:49;14.07;;;5.32;;
52962;SDS011;38827;53.024;6.596;2023-06-10T06:31:15;10.00;;;5.00;;
52962;SDS011;38827;53.024;6.596;2023-06-10T06:33:40;10.93;;;5.22;;
52962;SDS011;38827;53.024;6.596;2023-06-10T06:36:06;9.48;;;4.88;;
52962;SDS011;38827;53.024;6.596;2023-06-10T06:38:35;11.98;;;5.60;;
52962;SDS011;38827;53.024;6.596;2023-06-10T06:41:03;9.75;;;5.00;;
52962;SDS011;38827;53.024;6.596;2023-06-10T06:43:37;9.98;;;5.43;;
52962;SDS011;38827;53.024;6.596;2023-06-10T06:46:03;9.95;;;6.10;;
52962;SDS011;38827;53.024;6.596;2023-06-10T06:49:19;12.18;;;5.57;;
52962;SDS011;38827;53.024;6.596;2023-06-10T07:04:07;8.38;;;5.07;;
52962;SDS011;38827;53.024;6.596;2023-06-10T07:06:33;11.32;;;5.05;;
52962;SDS011;38827;53.024;6.596;2023-06-10T07:09:21;7.95;;;4.93;;
52962;SDS011;38827;53.024;6.596;2023-06-10T07:11:49;9.80;;;5.00;;
52962;SDS011;38827;53.024;6.596;2023-06-10T07:14:21;8.82;;;5.07;;
52962;SDS011;38827;53.024;6.596;2023-06-10T07:16:52;8.70;;;4.90;;
52962;SDS011;38827;53.024;6.596;2023-06-10T07:19:27;10.38;;;5.00;;
52962;SDS011;38827;53.024;6.596;2023-06-10T07:22:14;7.90;;;4.63;;
52962;SDS011;38827;53.024;6.596;2023-06-10T07:27:30;8.88;;;4.30;;
52962;SDS011;38827;53.024;6.596;2023-06-10T07:30:25;10.68;;;4.72;;
52962;SDS011;38827;53.024;6.596;2023-06-10T07:33:05;7.13;;;4.10;;
52962;SDS011;38827;53.024;6.596;2023-06-10T07:35:38;6.80;;;4.32;;
52962;SDS011;38827;53.024;6.596;2023-06-10T07:38:06;9.23;;;4.35;;
52962;SDS011;38827;53.024;6.596;2023-06-10T07:40:32;10.05;;;4.32;;
52962;SDS011;38827;53.024;6.596;2023-06-10T07:42:57;7.63;;;4.40;;
52962;SDS011;38827;53.024;6.596;2023-06-10T07:45:31;8.10;;;4.18;;
52962;SDS011;38827;53.024;6.596;2023-06-10T07:47:57;9.13;;;4.35;;
52962;SDS011;38827;53.024;6.596;2023-06-10T07:50:38;9.23;;;4.20;;
52962;SDS011;38827;53.024;6.596;2023-06-10T07:53:03;10.23;;;3.97;;
52962;SDS011;38827;53.024;6.596;2023-06-10T07:55:41;7.70;;;4.37;;
52962;SDS011;38827;53.024;6.596;2023-06-10T07:58:07;7.43;;;4.18;;
52962;SDS011;38827;53.024;6.596;2023-06-10T08:00:33;7.57;;;4.30;;
52962;SDS011;38827;53.024;6.596;2023-06-10T08:03:09;8.40;;;4.00;;
52962;SDS011;38827;53.024;6.596;2023-06-10T08:05:44;9.43;;;4.28;;
52962;SDS011;38827;53.024;6.596;2023-06-10T08:08:16;9.18;;;4.43;;
52962;SDS011;38827;53.024;6.596;2023-06-10T08:10:57;7.95;;;4.20;;
52962;SDS011;38827;53.024;6.596;2023-06-10T08:13:38;7.25;;;4.13;;
52962;SDS011;38827;53.024;6.596;2023-06-10T08:16:05;9.00;;;4.60;;
52962;SDS011;38827;53.024;6.596;2023-06-10T08:18:30;7.53;;;4.53;;
52962;SDS011;38827;53.024;6.596;2023-06-10T08:21:05;8.10;;;4.67;;
52962;SDS011;38827;53.024;6.596;2023-06-10T08:23:34;8.80;;;4.10;;
52962;SDS011;38827;53.024;6.596;2023-06-10T08:26:00;6.67;;;4.10;;
52962;SDS011;38827;53.024;6.596;2023-06-10T08:28:25;5.88;;;4.10;;
52962;SDS011;38827;53.024;6.596;2023-06-10T08:30:54;7.05;;;3.88;;
52962;SDS011;38827;53.024;6.596;2023-06-10T08:33:26;9.55;;;4.43;;
52962;SDS011;38827;53.024;6.596;2023-06-10T08:36:01;7.55;;;3.85;;
52962;SDS011;38827;53.024;6.596;2023-06-10T08:38:36;6.45;;;4.15;;
52962;SDS011;38827;53.024;6.596;2023-06-10T08:41:06;7.57;;;4.23;;
52962;SDS011;38827;53.024;6.596;2023-06-10T08:46:44;7.60;;;4.13;;
52962;SDS011;38827;53.024;6.596;2023-06-10T08:49:15;6.72;;;3.58;;
52962;SDS011;38827;53.024;6.596;2023-06-10T08:51:47;7.30;;;3.67;;
52962;SDS011;38827;53.024;6.596;2023-06-10T08:54:31;5.47;;;3.85;;
52962;SDS011;38827;53.024;6.596;2023-06-10T09:00:04;5.40;;;3.45;;
52962;SDS011;38827;53.024;6.596;2023-06-10T09:02:31;7.85;;;3.72;;
52962;SDS011;38827;53.024;6.596;2023-06-10T09:05:09;7.45;;;3.50;;
52962;SDS011;38827;53.024;6.596;2023-06-10T09:07:36;6.38;;;3.45;;
52962;SDS011;38827;53.024;6.596;2023-06-10T09:10:02;6.78;;;3.95;;
52962;SDS011;38827;53.024;6.596;2023-06-10T09:12:30;37.53;;;6.22;;
52962;SDS011;38827;53.024;6.596;2023-06-10T09:15:08;25.50;;;5.47;;
52962;SDS011;38827;53.024;6.596;2023-06-10T09:17:37;8.60;;;3.40;;
52962;SDS011;38827;53.024;6.596;2023-06-10T09:20:05;7.13;;;3.42;;
52962;SDS011;38827;53.024;6.596;2023-06-10T09:22:47;20.63;;;4.85;;
52962;SDS011;38827;53.024;6.596;2023-06-10T09:25:14;7.88;;;3.72;;
52962;SDS011;38827;53.024;6.596;2023-06-10T09:27:52;8.90;;;3.83;;
52962;SDS011;38827;53.024;6.596;2023-06-10T09:30:37;5.20;;;3.40;;
52962;SDS011;38827;53.024;6.596;2023-06-10T09:33:12;5.53;;;3.00;;
52962;SDS011;38827;53.024;6.596;2023-06-10T09:35:52;26.92;;;5.65;;
52962;SDS011;38827;53.024;6.596;2023-06-10T09:38:41;9.68;;;3.45;;
52962;SDS011;38827;53.024;6.596;2023-06-10T09:41:19;5.53;;;2.95;;
52962;SDS011;38827;53.024;6.596;2023-06-10T09:43:46;8.02;;;2.85;;
52962;SDS011;38827;53.024;6.596;2023-06-10T09:48:59;5.63;;;3.10;;
52962;SDS011;38827;53.024;6.596;2023-06-10T09:51:32;5.47;;;3.10;;
52962;SDS011;38827;53.024;6.596;2023-06-10T09:54:10;6.28;;;2.75;;
52962;SDS011;38827;53.024;6.596;2023-06-10T09:56:36;9.95;;;3.55;;
52962;SDS011;38827;53.024;6.596;2023-06-10T09:59:07;7.35;;;3.35;;
52962;SDS011;38827;53.024;6.596;2023-06-10T10:01:33;3.67;;;2.53;;
52962;SDS011;38827;53.024;6.596;2023-06-10T10:03:59;5.38;;;2.90;;
52962;SDS011;38827;53.024;6.596;2023-06-10T10:09:16;4.75;;;2.35;;
52962;SDS011;38827;53.024;6.596;2023-06-10T10:11:48;5.25;;;2.92;;
52962;SDS011;38827;53.024;6.596;2023-06-10T10:14:16;6.53;;;2.60;;
52962;SDS011;38827;53.024;6.596;2023-06-10T10:22:08;4.17;;;2.73;;
52962;SDS011;38827;53.024;6.596;2023-06-10T10:25:06;3.65;;;2.53;;
52962;SDS011;38827;53.024;6.596;2023-06-10T10:28:08;4.13;;;2.40;;
52962;SDS011;38827;53.024;6.596;2023-06-10T10:31:21;5.18;;;2.85;;
52962;SDS011;38827;53.024;6.596;2023-06-10T10:37:05;5.32;;;2.60;;
52962;SDS011;38827;53.024;6.596;2023-06-10T10:41:56;5.35;;;2.45;;
52962;SDS011;38827;53.024;6.596;2023-06-10T10:44:31;5.47;;;2.55;;
52962;SDS011;38827;53.024;6.596;2023-06-10T10:46:57;4.32;;;2.80;;
52962;SDS011;38827;53.024;6.596;2023-06-10T10:49:35;5.53;;;2.53;;
52962;SDS011;38827;53.024;6.596;2023-06-10T10:52:15;5.03;;;2.70;;
52962;SDS011;38827;53.024;6.596;2023-06-10T10:54:47;3.53;;;2.20;;
52962;SDS011;38827;53.024;6.596;2023-06-10T10:57:13;3.92;;;2.63;;
52962;SDS011;38827;53.024;6.596;2023-06-10T11:02:50;3.13;;;2.60;;
52962;SDS011;38827;53.024;6.596;2023-06-10T11:16:40;6.88;;;2.38;;
52962;SDS011;38827;53.024;6.596;2023-06-10T11:19:07;6.88;;;2.97;;
52962;SDS011;38827;53.024;6.596;2023-06-10T11:27:24;5.85;;;2.47;;
52962;SDS011;38827;53.024;6.596;2023-06-10T11:32:42;4.03;;;2.25;;
52962;SDS011;38827;53.024;6.596;2023-06-10T11:35:20;6.82;;;2.50;;
52962;SDS011;38827;53.024;6.596;2023-06-10T11:37:54;3.95;;;2.25;;
52962;SDS011;38827;53.024;6.596;2023-06-10T11:40:38;4.10;;;2.42;;
52962;SDS011;38827;53.024;6.596;2023-06-10T11:43:25;3.72;;;2.42;;
52962;SDS011;38827;53.024;6.596;2023-06-10T11:46:12;4.55;;;2.15;;
52962;SDS011;38827;53.024;6.596;2023-06-10T11:48:53;3.20;;;2.20;;
52962;SDS011;38827;53.024;6.596;2023-06-10T11:51:20;3.88;;;2.08;;
52962;SDS011;38827;53.024;6.596;2023-06-10T11:53:59;3.90;;;1.80;;
52962;SDS011;38827;53.024;6.596;2023-06-10T11:56:26;5.05;;;1.88;;
52962;SDS011;38827;53.024;6.596;2023-06-10T11:59:07;3.15;;;2.00;;
52962;SDS011;38827;53.024;6.596;2023-06-10T12:01:34;8.23;;;2.60;;
52962;SDS011;38827;53.024;6.596;2023-06-10T12:04:11;3.60;;;2.40;;
52962;SDS011;38827;53.024;6.596;2023-06-10T12:06:42;6.47;;;2.13;;
52962;SDS011;38827;53.024;6.596;2023-06-10T12:09:42;4.10;;;2.00;;
52962;SDS011;38827;53.024;6.596;2023-06-10T12:14:55;5.30;;;2.60;;
52962;SDS011;38827;53.024;6.596;2023-06-10T12:18:06;5.20;;;2.53;;
52962;SDS011;38827;53.024;6.596;2023-06-10T12:20:32;5.83;;;2.60;;
52962;SDS011;38827;53.024;6.596;2023-06-10T12:23:08;6.35;;;2.72;;
52962;SDS011;38827;53.024;6.596;2023-06-10T12:25:51;4.32;;;2.15;;
52962;SDS011;38827;53.024;6.596;2023-06-10T12:28:20;3.80;;;2.60;;
52962;SDS011;38827;53.024;6.596;2023-06-10T12:31:12;3.78;;;2.42;;
52962;SDS011;38827;53.024;6.596;2023-06-10T12:36:47;5.55;;;2.47;;
52962;SDS011;38827;53.024;6.596;2023-06-10T12:39:13;3.63;;;2.33;;
52962;SDS011;38827;53.024;6.596;2023-06-10T12:41:39;4.77;;;2.30;;
52962;SDS011;38827;53.024;6.596;2023-06-10T12:44:05;4.93;;;2.30;;
52962;SDS011;38827;53.024;6.596;2023-06-10T12:46:37;4.73;;;2.43;;
52962;SDS011;38827;53.024;6.596;2023-06-10T12:49:03;4.72;;;2.33;;
52962;SDS011;38827;53.024;6.596;2023-06-10T12:51:28;4.53;;;2.27;;
52962;SDS011;38827;53.024;6.596;2023-06-10T12:53:54;3.70;;;2.45;;
52962;SDS011;38827;53.024;6.596;2023-06-10T12:56:20;5.88;;;2.35;;
52962;SDS011;38827;53.024;6.596;2023-06-10T12:58:47;5.93;;;2.72;;
52962;SDS011;38827;53.024;6.596;2023-06-10T13:01:13;4.22;;;2.40;;
52962;SDS011;38827;53.024;6.596;2023-06-10T13:03:48;5.57;;;2.50;;
52962;SDS011;38827;53.024;6.596;2023-06-10T13:06:26;4.95;;;2.60;;
52962;SDS011;38827;53.024;6.596;2023-06-10T13:09:05;7.97;;;2.65;;
52962;SDS011;38827;53.024;6.596;2023-06-10T13:11:32;8.65;;;2.92;;
52962;SDS011;38827;53.024;6.596;2023-06-10T13:14:04;6.30;;;2.60;;
52962;SDS011;38827;53.024;6.596;2023-06-10T13:16:37;5.88;;;2.92;;
52962;SDS011;38827;53.024;6.596;2023-06-10T13:19:12;4.10;;;2.50;;
52962;SDS011;38827;53.024;6.596;2023-06-10T13:21:47;6.43;;;2.70;;
52962;SDS011;38827;53.024;6.596;2023-06-10T13:24:16;3.22;;;2.40;;
52962;SDS011;38827;53.024;6.596;2023-06-10T13:26:42;6.47;;;3.08;;
52962;SDS011;38827;53.024;6.596;2023-06-10T13:29:20;4.37;;;2.30;;
52962;SDS011;38827;53.024;6.596;2023-06-10T13:31:48;6.13;;;2.92;;
52962;SDS011;38827;53.024;6.596;2023-06-10T13:37:24;4.35;;;2.40;;
52962;SDS011;38827;53.024;6.596;2023-06-10T13:39:53;6.88;;;2.58;;
52962;SDS011;38827;53.024;6.596;2023-06-10T13:42:19;5.10;;;2.72;;
52962;SDS011;38827;53.024;6.596;2023-06-10T13:44:54;6.40;;;3.00;;
52962;SDS011;38827;53.024;6.596;2023-06-10T13:47:21;7.05;;;2.50;;
52962;SDS011;38827;53.024;6.596;2023-06-10T13:50:02;4.88;;;2.50;;
52962;SDS011;38827;53.024;6.596;2023-06-10T13:52:29;8.55;;;2.70;;
52962;SDS011;38827;53.024;6.596;2023-06-10T13:57:30;6.70;;;2.60;;
52962;SDS011;38827;53.024;6.596;2023-06-10T14:00:05;4.47;;;2.47;;
52962;SDS011;38827;53.024;6.596;2023-06-10T14:02:34;4.32;;;2.28;;
52962;SDS011;38827;53.024;6.596;2023-06-10T14:05:00;6.13;;;1.88;;
52962;SDS011;38827;53.024;6.596;2023-06-10T14:07:26;5.55;;;2.38;;
52962;SDS011;38827;53.024;6.596;2023-06-10T14:09:52;4.07;;;2.20;;
52962;SDS011;38827;53.024;6.596;2023-06-10T14:12:21;4.17;;;2.50;;
52962;SDS011;38827;53.024;6.596;2023-06-10T14:14:47;5.70;;;2.13;;
52962;SDS011;38827;53.024;6.596;2023-06-10T14:17:12;6.18;;;2.25;;
52962;SDS011;38827;53.024;6.596;2023-06-10T14:22:35;4.88;;;2.20;;
52962;SDS011;38827;53.024;6.596;2023-06-10T14:25:03;5.35;;;2.10;;
52962;SDS011;38827;53.024;6.596;2023-06-10T14:30:26;6.18;;;2.03;;
52962;SDS011;38827;53.024;6.596;2023-06-10T14:32:52;5.20;;;2.22;;
52962;SDS011;38827;53.024;6.596;2023-06-10T14:35:33;4.07;;;2.30;;
52962;SDS011;38827;53.024;6.596;2023-06-10T14:38:01;4.05;;;1.98;;
52962;SDS011;38827;53.024;6.596;2023-06-10T14:43:11;8.20;;;2.40;;
52962;SDS011;38827;53.024;6.596;2023-06-10T14:45:38;5.28;;;2.40;;
52962;SDS011;38827;53.024;6.596;2023-06-10T14:48:26;6.47;;;2.20;;
52962;SDS011;38827;53.024;6.596;2023-06-10T14:51:04;5.00;;;2.20;;
52962;SDS011;38827;53.024;6.596;2023-06-10T14:53:39;4.32;;;2.05;;
52962;SDS011;38827;53.024;6.596;2023-06-10T14:56:23;5.43;;;2.20;;
52962;SDS011;38827;53.024;6.596;2023-06-10T14:58:59;9.65;;;3.67;;
52962;SDS011;38827;53.024;6.596;2023-06-10T15:01:34;5.53;;;2.45;;
52962;SDS011;38827;53.024;6.596;2023-06-10T15:04:06;5.97;;;2.42;;
52962;SDS011;38827;53.024;6.596;2023-06-10T15:09:14;4.32;;;2.33;;
52962;SDS011;38827;53.024;6.596;2023-06-10T15:11:41;4.75;;;2.20;;
52962;SDS011;38827;53.024;6.596;2023-06-10T15:14:34;3.95;;;2.00;;
52962;SDS011;38827;53.024;6.596;2023-06-10T15:17:00;3.38;;;2.03;;
52962;SDS011;38827;53.024;6.596;2023-06-10T15:19:31;3.90;;;2.20;;
52962;SDS011;38827;53.024;6.596;2023-06-10T15:24:58;6.70;;;2.25;;
52962;SDS011;38827;53.024;6.596;2023-06-10T15:27:30;4.60;;;2.20;;
52962;SDS011;38827;53.024;6.596;2023-06-10T15:29:56;5.00;;;2.40;;
52962;SDS011;38827;53.024;6.596;2023-06-10T15:32:34;5.63;;;2.23;;
52962;SDS011;38827;53.024;6.596;2023-06-10T15:35:32;3.53;;;2.20;;
52962;SDS011;38827;53.024;6.596;2023-06-10T15:41:03;3.80;;;2.10;;
52962;SDS011;38827;53.024;6.596;2023-06-10T15:43:32;6.18;;;2.20;;
52962;SDS011;38827;53.024;6.596;2023-06-10T15:46:13;4.13;;;1.80;;
52962;SDS011;38827;53.024;6.596;2023-06-10T15:48:50;3.75;;;2.17;;
52962;SDS011;38827;53.024;6.596;2023-06-10T15:51:33;3.65;;;2.00;;
52962;SDS011;38827;53.024;6.596;2023-06-10T15:53:59;3.72;;;1.90;;
52962;SDS011;38827;53.024;6.596;2023-06-10T15:56:50;4.00;;;1.95;;
52962;SDS011;38827;53.024;6.596;2023-06-10T15:59:25;8.20;;;2.13;;
52962;SDS011;38827;53.024;6.596;2023-06-10T16:01:57;3.95;;;2.00;;
52962;SDS011;38827;53.024;6.596;2023-06-10T16:04:38;3.97;;;2.20;;
52962;SDS011;38827;53.024;6.596;2023-06-10T16:07:27;6.25;;;2.38;;
52962;SDS011;38827;53.024;6.596;2023-06-10T16:09:56;5.45;;;2.33;;
52962;SDS011;38827;53.024;6.596;2023-06-10T16:13:18;5.97;;;2.80;;
52962;SDS011;38827;53.024;6.596;2023-06-10T16:15:53;3.35;;;1.77;;
52962;SDS011;38827;53.024;6.596;2023-06-10T16:18:34;3.08;;;1.70;;
52962;SDS011;38827;53.024;6.596;2023-06-10T16:21:09;4.30;;;2.00;;
52962;SDS011;38827;53.024;6.596;2023-06-10T16:23:41;2.63;;;1.80;;
52962;SDS011;38827;53.024;6.596;2023-06-10T16:26:09;2.40;;;1.90;;
52962;SDS011;38827;53.024;6.596;2023-06-10T16:28:35;5.35;;;2.00;;
52962;SDS011;38827;53.024;6.596;2023-06-10T16:31:04;6.40;;;1.93;;
52962;SDS011;38827;53.024;6.596;2023-06-10T16:33:39;3.58;;;1.92;;
52962;SDS011;38827;53.024;6.596;2023-06-10T16:41:39;4.20;;;2.13;;
52962;SDS011;38827;53.024;6.596;2023-06-10T16:44:04;5.50;;;1.98;;
52962;SDS011;38827;53.024;6.596;2023-06-10T16:49:20;5.88;;;1.85;;
52962;SDS011;38827;53.024;6.596;2023-06-10T16:51:53;3.90;;;1.97;;
52962;SDS011;38827;53.024;6.596;2023-06-10T16:57:21;5.18;;;2.30;;
52962;SDS011;38827;53.024;6.596;2023-06-10T16:59:47;5.72;;;2.70;;
52962;SDS011;38827;53.024;6.596;2023-06-10T17:02:13;6.97;;;2.10;;
52962;SDS011;38827;53.024;6.596;2023-06-10T17:04:45;4.23;;;2.70;;